Time;durP1;ratioP1;P1;durP2;ratioP2;P2;SDS_P1;SDS_P2;PMS_P1;PMS_P2;Temp;Humidity;BMP_temperature;BMP_pressure;BME280_temperature;BME280_humidity;BME280_pressure;Samples;Min_cycle;Max_cycle;Signal;HPM_P1;HPM_P2
2023/07/22 00:02:20;;;;;;;2.10;1.90;;;;;;;;;;5072920;28;20028;-78
2023/07/22 00:04:46;;;;;;;2.30;1.85;;;;;;;;;;5072205;28;20082;-78
2023/07/22 00:07:11;;;;;;;2.60;2.40;;;;;;;;;;5074618;28;20025;-79
2023/07/22 00:09:38;;;;;;;3.35;2.22;;;;;;;;;;5056154;28;20036;-79
2023/07/22 00:12:04;;;;;;;4.63;2.90;;;;;;;;;;5074138;28;20063;-79
2023/07/22 00:14:30;;;;;;;4.80;2.70;;;;;;;;;;5072687;28;20052;-79
2023/07/22 00:16:55;;;;;;;3.70;2.97;;;;;;;;;;5072927;28;20028;-78
2023/07/22 00:19:21;;;;;;;3.80;2.60;;;;;;;;;;5074044;28;20060;-78
2023/07/22 00:21:46;;;;;;;3.05;2.30;;;;;;;;;;5074355;28;20040;-79
2023/07/22 00:24:11;;;;;;;3.38;2.65;;;;;;;;;;5072379;28;20028;-79
2023/07/22 00:26:37;;;;;;;2.40;2.20;;;;;;;;;;5074046;28;20025;-78
2023/07/22 00:29:02;;;;;;;3.30;2.90;;;;;;;;;;5073989;28;20531;-78
2023/07/22 00:31:28;;;;;;;2.70;2.13;;;;;;;;;;5072511;28;20032;-78
2023/07/22 00:33:54;;;;;;;3.45;2.67;;;;;;;;;;5072777;28;20027;-78
2023/07/22 00:36:19;;;;;;;3.30;3.00;;;;;;;;;;5073509;28;20395;-79
2023/07/22 00:38:44;;;;;;;3.13;2.55;;;;;;;;;;5073593;28;20086;-78
2023/07/22 00:41:11;;;;;;;4.03;3.33;;;;;;;;;;5073553;28;20035;-79
2023/07/22 00:43:36;;;;;;;3.65;2.80;;;;;;;;;;5072333;28;20380;-78
2023/07/22 00:46:02;;;;;;;3.00;2.70;;;;;;;;;;5055578;28;20059;-79
2023/07/22 00:48:27;;;;;;;3.50;2.88;;;;;;;;;;5055478;28;20032;-79
2023/07/22 00:50:53;;;;;;;2.90;2.60;;;;;;;;;;5074524;28;20048;-79
2023/07/22 00:53:18;;;;;;;2.90;2.60;;;;;;;;;;5055666;28;20033;-78
2023/07/22 00:55:45;;;;;;;4.18;3.03;;;;;;;;;;5072530;28;20028;-79
2023/07/22 00:58:10;;;;;;;2.95;2.58;;;;;;;;;;5055683;28;20105;-79
2023/07/22 01:00:36;;;;;;;6.88;3.10;;;;;;;;;;5073622;28;20025;-79
2023/07/22 01:03:01;;;;;;;3.42;2.67;;;;;;;;;;5072146;28;20040;-79
2023/07/22 01:05:27;;;;;;;3.88;3.10;;;;;;;;;;5055156;28;20056;-79
2023/07/22 01:07:53;;;;;;;3.70;2.78;;;;;;;;;;5073439;28;20028;-79
2023/07/22 01:10:19;;;;;;;3.47;2.63;;;;;;;;;;5073267;28;20471;-78
2023/07/22 01:12:45;;;;;;;3.72;3.08;;;;;;;;;;5073243;28;20032;-79
2023/07/22 01:15:10;;;;;;;3.65;2.70;;;;;;;;;;5073864;28;20113;-79
2023/07/22 01:17:37;;;;;;;2.83;2.53;;;;;;;;;;5076100;28;20108;-79
2023/07/22 01:20:03;;;;;;;3.35;2.67;;;;;;;;;;5059336;28;20055;-79
2023/07/22 01:22:29;;;;;;;3.38;2.72;;;;;;;;;;5076010;28;20033;-79
2023/07/22 01:24:54;;;;;;;3.65;3.00;;;;;;;;;;5059210;28;20372;-79
2023/07/22 01:27:20;;;;;;;2.40;2.20;;;;;;;;;;5075938;28;20021;-79
2023/07/22 01:29:45;;;;;;;5.38;2.47;;;;;;;;;;5075906;28;20033;-79
2023/07/22 01:32:10;;;;;;;3.72;3.10;;;;;;;;;;5075904;28;20147;-79
2023/07/22 01:34:36;;;;;;;3.45;2.80;;;;;;;;;;5076414;28;20060;-79
2023/07/22 01:37:01;;;;;;;5.22;2.83;;;;;;;;;;5075539;28;20029;-78
2023/07/22 01:39:27;;;;;;;3.42;3.10;;;;;;;;;;5076045;28;20032;-79
2023/07/22 01:41:52;;;;;;;3.78;2.95;;;;;;;;;;5076865;28;20498;-78
2023/07/22 01:44:18;;;;;;;2.97;2.58;;;;;;;;;;5076841;28;20056;-79
2023/07/22 01:46:43;;;;;;;3.00;2.70;;;;;;;;;;5075745;28;20040;-79
2023/07/22 01:49:12;;;;;;;4.00;3.00;;;;;;;;;;5058628;28;20040;-79
2023/07/22 01:51:38;;;;;;;5.82;3.70;;;;;;;;;;5075489;28;20608;-79
2023/07/22 01:54:04;;;;;;;4.65;3.03;;;;;;;;;;5075454;28;20384;-79
2023/07/22 01:56:30;;;;;;;4.25;3.22;;;;;;;;;;5075320;28;20028;-78
2023/07/22 01:58:55;;;;;;;3.63;2.90;;;;;;;;;;5075919;28;20127;-78
2023/07/22 02:01:21;;;;;;;3.63;3.28;;;;;;;;;;5076499;28;20356;-79
2023/07/22 02:03:46;;;;;;;4.32;3.40;;;;;;;;;;5074982;28;20036;-79
2023/07/22 02:06:12;;;;;;;3.15;2.85;;;;;;;;;;5075251;28;20025;-79
2023/07/22 02:08:37;;;;;;;5.30;3.25;;;;;;;;;;5075447;28;20066;-79
2023/07/22 02:11:06;;;;;;;4.60;3.80;;;;;;;;;;5076569;28;20029;-78
2023/07/22 02:13:31;;;;;;;4.30;3.42;;;;;;;;;;5075108;28;20025;-78
2023/07/22 02:15:57;;;;;;;4.22;3.38;;;;;;;;;;5075282;28;20035;-79
2023/07/22 02:18:22;;;;;;;4.40;3.70;;;;;;;;;;5076477;28;20058;-79
2023/07/22 02:20:48;;;;;;;4.63;3.60;;;;;;;;;;5076397;28;20468;-79
2023/07/22 02:23:13;;;;;;;3.80;3.00;;;;;;;;;;5075236;28;20029;-79
2023/07/22 02:25:39;;;;;;;6.30;3.92;;;;;;;;;;5075794;28;20031;-78
2023/07/22 02:28:04;;;;;;;4.20;3.78;;;;;;;;;;5074064;28;20391;-78
2023/07/22 02:30:29;;;;;;;6.00;3.88;;;;;;;;;;5076281;28;20051;-78
2023/07/22 02:32:56;;;;;;;4.35;3.67;;;;;;;;;;5074644;28;20032;-78
2023/07/22 02:35:21;;;;;;;4.22;3.53;;;;;;;;;;5074716;28;20391;-78
2023/07/22 02:37:46;;;;;;;4.20;3.72;;;;;;;;;;5074469;28;20025;-78
2023/07/22 02:40:12;;;;;;;4.85;3.90;;;;;;;;;;5075141;28;20032;-78
2023/07/22 02:42:38;;;;;;;3.83;3.38;;;;;;;;;;5076038;28;20036;-78
2023/07/22 02:45:04;;;;;;;4.95;4.07;;;;;;;;;;5074562;28;20380;-78
2023/07/22 02:47:32;;;;;;;4.22;3.55;;;;;;;;;;5076202;28;20107;-78
2023/07/22 02:49:57;;;;;;;3.53;3.22;;;;;;;;;;5075964;28;20038;-78
2023/07/22 02:52:22;;;;;;;4.97;3.58;;;;;;;;;;5074435;28;20029;-79
2023/07/22 02:55:05;;;;;;;5.07;3.45;;;;;;;;;;5075868;28;20042;-79
2023/07/22 02:57:30;;;;;;;5.10;3.72;;;;;;;;;;5074474;28;20391;-78
2023/07/22 02:59:56;;;;;;;5.00;3.72;;;;;;;;;;5075546;28;20078;-78
2023/07/22 03:02:21;;;;;;;5.90;3.85;;;;;;;;;;5076067;28;20086;-78
2023/07/22 03:04:47;;;;;;;8.40;3.97;;;;;;;;;;5075413;28;20048;-78
2023/07/22 03:07:12;;;;;;;5.53;4.05;;;;;;;;;;5074046;28;20067;-78
2023/07/22 03:09:37;;;;;;;3.95;3.17;;;;;;;;;;5075648;28;20486;-78
2023/07/22 03:12:03;;;;;;;5.40;4.10;;;;;;;;;;5073885;28;20025;-79
2023/07/22 03:14:29;;;;;;;3.17;2.70;;;;;;;;;;5074090;28;20043;-79
2023/07/22 03:16:54;;;;;;;4.93;3.55;;;;;;;;;;5075638;28;20129;-78
2023/07/22 03:19:19;;;;;;;3.15;2.80;;;;;;;;;;5074965;28;20036;-78
2023/07/22 03:21:45;;;;;;;3.75;3.38;;;;;;;;;;5040548;28;20059;-78
2023/07/22 03:24:10;;;;;;;3.42;3.10;;;;;;;;;;5057317;28;20089;-78
2023/07/22 03:26:35;;;;;;;7.10;3.63;;;;;;;;;;5074024;28;20142;-78
2023/07/22 03:29:01;;;;;;;5.30;3.10;;;;;;;;;;5074815;28;20471;-79
2023/07/22 03:31:26;;;;;;;4.15;3.63;;;;;;;;;;5074795;28;20360;-79
2023/07/22 03:33:52;;;;;;;5.50;4.07;;;;;;;;;;5074991;28;20028;-78
2023/07/22 03:36:17;;;;;;;4.78;3.63;;;;;;;;;;5073328;28;20089;-79
2023/07/22 03:38:43;;;;;;;3.72;3.30;;;;;;;;;;5056619;28;20037;-79
2023/07/22 03:41:08;;;;;;;6.43;4.03;;;;;;;;;;5074541;28;20028;-78
2023/07/22 03:43:34;;;;;;;5.05;3.40;;;;;;;;;;5073575;28;20032;-79
2023/07/22 03:45:59;;;;;;;4.57;3.63;;;;;;;;;;5074697;28;20028;-79
2023/07/22 03:48:24;;;;;;;4.35;3.63;;;;;;;;;;5056444;28;20532;-78
2023/07/22 03:50:50;;;;;;;3.50;3.17;;;;;;;;;;5074742;28;20032;-78
2023/07/22 03:53:15;;;;;;;3.28;2.47;;;;;;;;;;5074574;28;20471;-78
2023/07/22 03:55:41;;;;;;;3.28;2.97;;;;;;;;;;5074080;28;20024;-78
2023/07/22 03:58:06;;;;;;;4.40;3.03;;;;;;;;;;5074256;28;20048;-78
2023/07/22 04:00:32;;;;;;;4.15;3.30;;;;;;;;;;5072952;28;20497;-78
2023/07/22 04:02:57;;;;;;;4.40;3.50;;;;;;;;;;5074287;28;20036;-78
2023/07/22 04:05:22;;;;;;;3.10;2.72;;;;;;;;;;5073796;28;20059;-78
2023/07/22 04:07:48;;;;;;;4.05;3.13;;;;;;;;;;5073078;28;20078;-79
2023/07/22 04:10:13;;;;;;;4.78;3.80;;;;;;;;;;5074146;28;20356;-79
2023/07/22 04:12:39;;;;;;;4.95;3.40;;;;;;;;;;5072506;28;20044;-78
2023/07/22 04:15:05;;;;;;;3.13;2.83;;;;;;;;;;5074087;28;20025;-79
2023/07/22 04:17:30;;;;;;;6.05;3.90;;;;;;;;;;5073715;28;20067;-78
2023/07/22 04:19:56;;;;;;;5.15;3.92;;;;;;;;;;5073807;28;20033;-78
2023/07/22 04:22:21;;;;;;;6.43;4.00;;;;;;;;;;5074232;28;20043;-78
2023/07/22 04:24:48;;;;;;;4.47;3.50;;;;;;;;;;5072619;28;20042;-78
2023/07/22 04:27:14;;;;;;;5.25;3.80;;;;;;;;;;5073710;28;20020;-78
2023/07/22 04:29:41;;;;;;;3.80;3.40;;;;;;;;;;5074038;28;20101;-78
2023/07/22 04:32:08;;;;;;;4.18;3.65;;;;;;;;;;5073979;28;20586;-79
2023/07/22 04:34:34;;;;;;;5.20;4.07;;;;;;;;;;5072776;28;20165;-78
2023/07/22 04:37:00;;;;;;;3.00;2.70;;;;;;;;;;5072306;28;20395;-78
2023/07/22 04:39:25;;;;;;;4.20;2.88;;;;;;;;;;5072431;28;20034;-79
2023/07/22 04:41:51;;;;;;;5.85;3.63;;;;;;;;;;5055656;28;20035;-78
2023/07/22 04:44:17;;;;;;;3.78;3.00;;;;;;;;;;5073847;28;20035;-79
2023/07/22 04:46:42;;;;;;;3.45;2.88;;;;;;;;;;5055631;28;20493;-78
2023/07/22 04:49:08;;;;;;;4.18;3.50;;;;;;;;;;5071640;28;20036;-80
2023/07/22 04:51:34;;;;;;;4.22;3.10;;;;;;;;;;5073743;28;20383;-78
2023/07/22 04:53:59;;;;;;;3.95;3.33;;;;;;;;;;5072232;28;20498;-79
2023/07/22 04:56:24;;;;;;;2.97;2.50;;;;;;;;;;5073383;28;20024;-78
2023/07/22 04:58:50;;;;;;;3.28;2.80;;;;;;;;;;5072238;28;20029;-79
2023/07/22 05:01:15;;;;;;;4.65;3.50;;;;;;;;;;5073392;28;20103;-79
2023/07/22 05:03:41;;;;;;;3.03;2.80;;;;;;;;;;5072168;28;20163;-78
2023/07/22 05:06:08;;;;;;;3.28;2.95;;;;;;;;;;5071999;28;20052;-78
2023/07/22 05:08:33;;;;;;;3.63;3.25;;;;;;;;;;5073274;28;20028;-78
2023/07/22 05:10:59;;;;;;;3.80;2.92;;;;;;;;;;5073286;28;20029;-78
2023/07/22 05:13:24;;;;;;;3.55;2.90;;;;;;;;;;5055593;28;20028;-78
2023/07/22 05:15:49;;;;;;;3.42;2.97;;;;;;;;;;5071980;28;20196;-78
2023/07/22 05:18:15;;;;;;;3.88;2.92;;;;;;;;;;5073444;28;20060;-78
2023/07/22 05:20:40;;;;;;;4.10;3.10;;;;;;;;;;5073520;28;20044;-79
2023/07/22 05:23:05;;;;;;;5.20;2.80;;;;;;;;;;5073710;28;20184;-79
2023/07/22 05:25:31;;;;;;;4.00;3.00;;;;;;;;;;5072002;28;20033;-79
2023/07/22 05:27:56;;;;;;;5.13;3.30;;;;;;;;;;5073427;28;20051;-79
2023/07/22 05:30:22;;;;;;;9.43;3.75;;;;;;;;;;5073659;28;20029;-79
2023/07/22 05:32:47;;;;;;;3.55;3.20;;;;;;;;;;5073031;28;20392;-79
2023/07/22 05:35:12;;;;;;;4.25;3.20;;;;;;;;;;5073309;28;20063;-79
2023/07/22 05:37:38;;;;;;;4.38;3.13;;;;;;;;;;5072846;28;20028;-78
2023/07/22 05:40:03;;;;;;;5.03;3.17;;;;;;;;;;5073233;28;20037;-78
2023/07/22 05:42:29;;;;;;;3.40;3.10;;;;;;;;;;5072885;28;20044;-78
2023/07/22 05:44:57;;;;;;;3.55;3.22;;;;;;;;;;5072347;28;20074;-78
2023/07/22 05:47:22;;;;;;;5.55;3.60;;;;;;;;;;5055039;28;20032;-79
2023/07/22 05:49:48;;;;;;;3.50;2.97;;;;;;;;;;5072896;28;20036;-78
2023/07/22 05:52:13;;;;;;;7.22;3.42;;;;;;;;;;5072819;28;20044;-78
2023/07/22 05:54:39;;;;;;;3.50;3.08;;;;;;;;;;5073169;28;20392;-78
2023/07/22 05:57:04;;;;;;;4.25;3.55;;;;;;;;;;5071485;28;20107;-78
2023/07/22 05:59:31;;;;;;;4.63;3.35;;;;;;;;;;5054969;28;20519;-79
2023/07/22 06:01:56;;;;;;;3.97;3.15;;;;;;;;;;5072724;28;20035;-79
2023/07/22 06:04:21;;;;;;;5.30;3.60;;;;;;;;;;5075189;28;20057;-79
2023/07/22 06:06:47;;;;;;;7.20;4.63;;;;;;;;;;5075474;28;20025;-78
2023/07/22 06:09:12;;;;;;;7.10;3.75;;;;;;;;;;5076245;28;20516;-78
2023/07/22 06:11:37;;;;;;;4.03;3.20;;;;;;;;;;5076452;28;20115;-79
2023/07/22 06:14:03;;;;;;;5.50;4.18;;;;;;;;;;5076188;28;20040;-78
2023/07/22 06:16:28;;;;;;;5.43;4.13;;;;;;;;;;5058064;28;20050;-79
2023/07/22 06:18:54;;;;;;;4.15;3.22;;;;;;;;;;5075208;28;20446;-78
2023/07/22 06:21:19;;;;;;;4.55;3.55;;;;;;;;;;5058443;28;20097;-79
2023/07/22 06:23:46;;;;;;;5.18;3.25;;;;;;;;;;5074773;28;20025;-80
2023/07/22 06:26:11;;;;;;;5.00;3.65;;;;;;;;;;5074543;28;20059;-79
2023/07/22 06:28:36;;;;;;;8.18;3.78;;;;;;;;;;5074318;28;20068;-76
2023/07/22 06:31:02;;;;;;;5.47;3.95;;;;;;;;;;5074718;28;20044;-76
2023/07/22 06:33:27;;;;;;;7.30;4.32;;;;;;;;;;5074702;28;20519;-79
2023/07/22 06:35:53;;;;;;;8.73;4.10;;;;;;;;;;5074518;28;20032;-79
2023/07/22 06:38:18;;;;;;;6.43;4.22;;;;;;;;;;5075857;28;20128;-76
2023/07/22 06:40:43;;;;;;;7.95;4.03;;;;;;;;;;5074901;28;20036;-78
2023/07/22 06:43:09;;;;;;;6.22;4.13;;;;;;;;;;5075801;28;20032;-79
2023/07/22 06:45:34;;;;;;;5.50;3.45;;;;;;;;;;5076391;28;20425;-79
2023/07/22 06:47:59;;;;;;;7.43;3.83;;;;;;;;;;5079012;28;20020;-80
2023/07/22 06:50:25;;;;;;;5.75;4.07;;;;;;;;;;5075277;28;20532;-79
2023/07/22 06:52:50;;;;;;;10.75;4.63;;;;;;;;;;5058431;28;20033;-78
2023/07/22 06:55:16;;;;;;;9.38;5.05;;;;;;;;;;5075988;28;20024;-79
2023/07/22 06:57:41;;;;;;;9.50;5.40;;;;;;;;;;5074277;28;20020;-79
2023/07/22 07:00:09;;;;;;;11.90;6.18;;;;;;;;;;5074815;28;20036;-78
2023/07/22 07:02:35;;;;;;;12.35;6.03;;;;;;;;;;5074744;28;20028;-78
2023/07/22 07:05:01;;;;;;;10.40;5.68;;;;;;;;;;5074182;28;20094;-78
2023/07/22 07:07:26;;;;;;;13.05;5.72;;;;;;;;;;5075689;28;20078;-77
2023/07/22 07:09:51;;;;;;;9.05;5.88;;;;;;;;;;5075263;28;20063;-77
2023/07/22 07:12:17;;;;;;;7.80;5.13;;;;;;;;;;5073951;28;20103;-77
2023/07/22 07:14:42;;;;;;;8.27;5.10;;;;;;;;;;5075877;28;20035;-77
2023/07/22 07:17:07;;;;;;;10.38;5.05;;;;;;;;;;5076852;28;20433;-78
2023/07/22 07:19:33;;;;;;;8.15;4.65;;;;;;;;;;5074108;28;20029;-78
2023/07/22 07:21:58;;;;;;;9.68;5.65;;;;;;;;;;5057433;28;20075;-77
2023/07/22 07:24:24;;;;;;;9.50;5.18;;;;;;;;;;5073953;28;20120;-77
2023/07/22 07:26:49;;;;;;;5.88;4.63;;;;;;;;;;5075005;28;20394;-78
2023/07/22 07:29:15;;;;;;;5.85;4.43;;;;;;;;;;5075089;28;20029;-77
2023/07/22 07:31:40;;;;;;;7.95;5.05;;;;;;;;;;5075397;28;20383;-77
2023/07/22 07:34:06;;;;;;;5.95;4.60;;;;;;;;;;5075234;28;20082;-78
2023/07/22 07:36:34;;;;;;;5.55;4.43;;;;;;;;;;5074816;28;20033;-78
2023/07/22 07:39:00;;;;;;;9.93;4.85;;;;;;;;;;5073807;28;20024;-77
2023/07/22 07:41:25;;;;;;;4.70;3.85;;;;;;;;;;5057028;28;20028;-78
2023/07/22 07:43:50;;;;;;;7.00;4.10;;;;;;;;;;5074082;28;20150;-78
2023/07/22 07:46:22;;;;;;;7.18;4.60;;;;;;;;;;5076527;28;20028;-78
2023/07/22 07:48:49;;;;;;;5.28;4.10;;;;;;;;;;5075329;28;20039;-78
2023/07/22 07:51:16;;;;;;;6.35;4.32;;;;;;;;;;5073426;28;20028;-77
2023/07/22 07:53:43;;;;;;;8.55;4.47;;;;;;;;;;5073685;28;20527;-77
2023/07/22 07:56:09;;;;;;;6.68;4.53;;;;;;;;;;5073281;28;20029;-77
2023/07/22 07:58:35;;;;;;;5.53;4.20;;;;;;;;;;5056577;28;20035;-77
2023/07/22 08:01:00;;;;;;;5.57;4.38;;;;;;;;;;5073256;28;20020;-77
2023/07/22 08:03:26;;;;;;;7.90;4.50;;;;;;;;;;5056483;28;20033;-77
2023/07/22 08:05:51;;;;;;;7.38;4.20;;;;;;;;;;5074062;28;20048;-77
2023/07/22 08:08:17;;;;;;;10.63;4.25;;;;;;;;;;5073206;28;20110;-77
2023/07/22 08:10:45;;;;;;;7.20;4.43;;;;;;;;;;5075073;28;20490;-77
2023/07/22 08:13:11;;;;;;;5.20;4.00;;;;;;;;;;5073249;28;20095;-77
2023/07/22 08:15:36;;;;;;;5.80;4.25;;;;;;;;;;5073283;28;20035;-77
2023/07/22 08:18:03;;;;;;;7.90;4.32;;;;;;;;;;5074614;28;20029;-77
2023/07/22 08:20:30;;;;;;;6.15;3.97;;;;;;;;;;5073144;28;20036;-77
2023/07/22 08:22:56;;;;;;;5.95;3.97;;;;;;;;;;5089609;28;20032;-77
2023/07/22 08:25:21;;;;;;;5.30;3.60;;;;;;;;;;5073210;28;20498;-77
2023/07/22 08:27:47;;;;;;;4.90;3.53;;;;;;;;;;5073048;28;20104;-77
2023/07/22 08:30:12;;;;;;;5.80;3.80;;;;;;;;;;5057418;28;20033;-77
2023/07/22 08:32:37;;;;;;;6.68;3.80;;;;;;;;;;5074199;28;20471;-77
2023/07/22 08:35:03;;;;;;;6.55;4.07;;;;;;;;;;5072866;28;20037;-77
2023/07/22 08:37:30;;;;;;;5.07;3.65;;;;;;;;;;5071584;28;20036;-77
2023/07/22 08:39:56;;;;;;;6.05;3.58;;;;;;;;;;5071902;28;20100;-77
2023/07/22 08:42:23;;;;;;;5.95;3.60;;;;;;;;;;5071708;28;20066;-77
2023/07/22 08:44:53;;;;;;;4.80;3.60;;;;;;;;;;5071786;28;20067;-78
2023/07/22 08:47:20;;;;;;;6.43;3.80;;;;;;;;;;5073075;28;20065;-77
2023/07/22 08:49:50;;;;;;;5.10;3.50;;;;;;;;;;5072056;28;20511;-77
2023/07/22 08:52:17;;;;;;;4.85;3.88;;;;;;;;;;5071489;28;20039;-77
2023/07/22 08:54:43;;;;;;;4.38;3.50;;;;;;;;;;5073157;28;20040;-77
2023/07/22 08:57:09;;;;;;;5.75;3.60;;;;;;;;;;5054855;28;20024;-77
2023/07/22 08:59:35;;;;;;;6.40;3.40;;;;;;;;;;5071592;28;20020;-78
2023/07/22 09:02:01;;;;;;;4.43;3.20;;;;;;;;;;5071548;28;20050;-77
2023/07/22 09:04:26;;;;;;;6.30;3.15;;;;;;;;;;5071452;28;20048;-77
2023/07/22 09:06:52;;;;;;;5.30;3.22;;;;;;;;;;5073467;28;20043;-77
2023/07/22 09:09:19;;;;;;;5.10;3.28;;;;;;;;;;5072107;28;20056;-77
2023/07/22 09:11:45;;;;;;;4.28;2.67;;;;;;;;;;5055836;28;20039;-77
2023/07/22 09:14:11;;;;;;;3.22;2.75;;;;;;;;;;5071735;28;20125;-77
2023/07/22 09:16:37;;;;;;;4.60;2.80;;;;;;;;;;5071748;28;20037;-77
2023/07/22 09:19:04;;;;;;;4.10;2.50;;;;;;;;;;5072786;28;20029;-77
2023/07/22 09:21:29;;;;;;;3.50;2.88;;;;;;;;;;5055005;28;20418;-77
2023/07/22 09:23:55;;;;;;;5.82;3.20;;;;;;;;;;5055035;28;20032;-77
2023/07/22 09:26:20;;;;;;;5.32;3.08;;;;;;;;;;5073161;28;20029;-77
2023/07/22 09:28:57;;;;;;;4.75;3.00;;;;;;;;;;5077895;28;20028;-76
2023/07/22 09:31:24;;;;;;;12.13;3.13;;;;;;;;;;5073978;28;20036;-76
2023/07/22 09:33:50;;;;;;;6.78;3.20;;;;;;;;;;5077000;28;20025;-78
2023/07/22 09:36:16;;;;;;;5.03;2.88;;;;;;;;;;5064582;28;20032;-77
2023/07/22 09:38:41;;;;;;;4.97;2.97;;;;;;;;;;5077286;28;20033;-78
2023/07/22 09:41:08;;;;;;;5.15;2.80;;;;;;;;;;5079951;28;20052;-78
2023/07/22 09:43:38;;;;;;;3.53;2.40;;;;;;;;;;5077798;28;20480;-77
2023/07/22 09:46:10;;;;;;;4.25;2.70;;;;;;;;;;5065707;28;20036;-78
2023/07/22 09:48:40;;;;;;;3.70;2.50;;;;;;;;;;5082876;28;20017;-78
2023/07/22 09:51:06;;;;;;;3.50;2.50;;;;;;;;;;5060713;28;20562;-78
2023/07/22 09:53:31;;;;;;;4.43;2.65;;;;;;;;;;5076009;28;20189;-78
2023/07/22 09:56:03;;;;;;;3.17;2.35;;;;;;;;;;5075774;28;20025;-78
2023/07/22 09:58:30;;;;;;;4.20;2.60;;;;;;;;;;5058743;28;20032;-78
2023/07/22 10:00:56;;;;;;;5.45;2.40;;;;;;;;;;5075264;28;20085;-78
2023/07/22 10:03:22;;;;;;;3.08;2.35;;;;;;;;;;5074636;28;20044;-78
2023/07/22 10:05:48;;;;;;;3.47;2.45;;;;;;;;;;5057678;28;20557;-78
2023/07/22 10:08:16;;;;;;;3.30;2.40;;;;;;;;;;5075720;28;20029;-78
2023/07/22 10:10:43;;;;;;;3.67;2.20;;;;;;;;;;5075442;28;20395;-78
2023/07/22 10:13:09;;;;;;;5.05;2.15;;;;;;;;;;5074152;28;20035;-78
2023/07/22 10:15:35;;;;;;;6.93;2.38;;;;;;;;;;5074755;28;20562;-77
2023/07/22 10:18:02;;;;;;;3.22;2.55;;;;;;;;;;5074478;28;20116;-78
2023/07/22 10:20:28;;;;;;;4.70;2.30;;;;;;;;;;5074523;28;20039;-78
2023/07/22 10:22:54;;;;;;;4.32;2.20;;;;;;;;;;5074458;28;20025;-78
2023/07/22 10:25:21;;;;;;;3.63;2.17;;;;;;;;;;5075935;28;20035;-78
2023/07/22 10:27:48;;;;;;;3.60;2.40;;;;;;;;;;5057375;28;20032;-79
2023/07/22 10:30:16;;;;;;;4.72;2.30;;;;;;;;;;5074158;28;20032;-79
2023/07/22 10:32:44;;;;;;;4.18;2.33;;;;;;;;;;5074442;28;20056;-78
2023/07/22 10:35:11;;;;;;;10.88;2.83;;;;;;;;;;5074310;28;20078;-77
2023/07/22 10:37:41;;;;;;;6.05;2.30;;;;;;;;;;5073869;28;20024;-78
2023/07/22 10:40:17;;;;;;;4.93;2.30;;;;;;;;;;5074358;28;20028;-78
2023/07/22 10:42:42;;;;;;;2.50;2.10;;;;;;;;;;5075061;28;20481;-78
2023/07/22 10:45:24;;;;;;;5.47;2.55;;;;;;;;;;5090431;28;20141;-78
2023/07/22 10:48:04;;;;;;;3.40;2.40;;;;;;;;;;5056412;28;20139;-78
2023/07/22 10:50:46;;;;;;;5.15;3.15;;;;;;;;;;5056718;28;20123;-78
2023/07/22 10:53:24;;;;;;;6.68;3.95;;;;;;;;;;5074523;28;20031;-78
2023/07/22 10:56:09;;;;;;;4.75;3.90;;;;;;;;;;5073592;28;20040;-78
2023/07/22 10:58:57;;;;;;;3.75;3.00;;;;;;;;;;5073498;28;20083;-78
2023/07/22 11:01:27;;;;;;;5.40;3.25;;;;;;;;;;5056898;28;20020;-81
2023/07/22 11:04:22;;;;;;;5.50;3.20;;;;;;;;;;5074878;28;20074;-79
2023/07/22 11:06:47;;;;;;;4.85;2.72;;;;;;;;;;5075154;28;20063;-80
2023/07/22 11:09:34;;;;;;;5.88;4.00;;;;;;;;;;5074629;28;20029;-78
2023/07/22 11:12:00;;;;;;;7.18;4.80;;;;;;;;;;5074818;28;20116;-80
2023/07/22 11:14:27;;;;;;;7.78;4.78;;;;;;;;;;5074668;28;20021;-79
2023/07/22 11:16:53;;;;;;;9.65;5.88;;;;;;;;;;5073636;28;20024;-79
2023/07/22 11:19:22;;;;;;;15.70;6.50;;;;;;;;;;5056515;28;20281;-78
2023/07/22 11:21:48;;;;;;;8.63;6.15;;;;;;;;;;5073675;28;20059;-76
2023/07/22 11:24:14;;;;;;;9.57;4.85;;;;;;;;;;5073088;28;20555;-77
2023/07/22 11:26:40;;;;;;;7.03;4.13;;;;;;;;;;5073057;28;20036;-78
2023/07/22 11:29:07;;;;;;;5.32;4.00;;;;;;;;;;5073122;28;20029;-78
2023/07/22 11:31:33;;;;;;;7.35;3.55;;;;;;;;;;5056300;28;20032;-77
2023/07/22 11:33:59;;;;;;;10.18;3.75;;;;;;;;;;5056675;28;20036;-76
2023/07/22 11:36:26;;;;;;;9.45;3.33;;;;;;;;;;5073070;28;20025;-78
2023/07/22 11:38:52;;;;;;;4.95;3.25;;;;;;;;;;5073908;28;20501;-77
2023/07/22 11:41:17;;;;;;;3.47;2.78;;;;;;;;;;5072911;28;20037;-77
2023/07/22 11:43:43;;;;;;;3.88;3.05;;;;;;;;;;5072735;28;20029;-77
2023/07/22 11:46:09;;;;;;;4.82;2.75;;;;;;;;;;5073940;28;20028;-77
2023/07/22 11:48:34;;;;;;;3.63;2.50;;;;;;;;;;5073951;28;20041;-77
2023/07/22 11:51:00;;;;;;;5.40;2.90;;;;;;;;;;5074181;28;20032;-77
2023/07/22 11:53:29;;;;;;;4.35;2.85;;;;;;;;;;5055769;28;20070;-77
2023/07/22 11:55:55;;;;;;;5.18;2.70;;;;;;;;;;5055832;28;20056;-80
2023/07/22 11:58:27;;;;;;;4.55;2.63;;;;;;;;;;5073417;28;20059;-79
2023/07/22 12:01:03;;;;;;;3.17;2.47;;;;;;;;;;5071744;28;20039;-79
2023/07/22 12:03:33;;;;;;;5.47;2.70;;;;;;;;;;5072432;28;20036;-79
2023/07/22 12:06:03;;;;;;;4.50;2.25;;;;;;;;;;5055353;28;20063;-79
2023/07/22 12:08:29;;;;;;;2.97;2.10;;;;;;;;;;5088887;28;20063;-79
2023/07/22 12:10:58;;;;;;;4.07;2.20;;;;;;;;;;5072326;28;20052;-79
2023/07/22 12:13:24;;;;;;;2.92;2.03;;;;;;;;;;5072131;28;20028;-79
2023/07/22 12:16:03;;;;;;;3.95;2.13;;;;;;;;;;5055446;28;20029;-79
2023/07/22 12:18:40;;;;;;;3.53;2.20;;;;;;;;;;5072178;28;20440;-78
2023/07/22 12:21:05;;;;;;;3.92;2.20;;;;;;;;;;5073560;28;20478;-78
2023/07/22 12:23:31;;;;;;;3.45;2.30;;;;;;;;;;5056702;28;20066;-77
2023/07/22 12:25:57;;;;;;;3.13;2.10;;;;;;;;;;5073583;28;20032;-80
2023/07/22 12:28:22;;;;;;;3.75;2.35;;;;;;;;;;5072261;28;20390;-80
2023/07/22 12:30:48;;;;;;;2.83;2.17;;;;;;;;;;5071445;28;20025;-79
2023/07/22 12:33:14;;;;;;;5.15;2.35;;;;;;;;;;5071762;28;20036;-79
2023/07/22 12:35:42;;;;;;;3.35;2.50;;;;;;;;;;5073195;28;20399;-79
2023/07/22 12:38:07;;;;;;;3.03;2.17;;;;;;;;;;5054844;28;20033;-79
2023/07/22 12:40:32;;;;;;;5.97;2.35;;;;;;;;;;5071055;28;20028;-79
2023/07/22 12:42:58;;;;;;;3.10;2.00;;;;;;;;;;5072785;28;20108;-79
2023/07/22 12:45:23;;;;;;;4.05;2.17;;;;;;;;;;5054356;28;20058;-79
2023/07/22 12:47:49;;;;;;;1.73;1.63;;;;;;;;;;5070546;28;20132;-80
2023/07/22 12:50:14;;;;;;;3.42;2.22;;;;;;;;;;5070686;28;20040;-78
2023/07/22 12:52:40;;;;;;;6.93;2.25;;;;;;;;;;5070512;28;20027;-77
2023/07/22 12:55:06;;;;;;;3.08;2.17;;;;;;;;;;5071275;28;20063;-79
2023/07/22 12:57:31;;;;;;;2.72;2.10;;;;;;;;;;5071873;28;20360;-79
2023/07/22 12:59:56;;;;;;;2.55;1.70;;;;;;;;;;5071645;28;20048;-79
2023/07/22 13:02:22;;;;;;;3.60;2.20;;;;;;;;;;5070453;28;20029;-79
2023/07/22 13:04:48;;;;;;;6.10;2.35;;;;;;;;;;5070337;28;20052;-79
2023/07/22 13:07:13;;;;;;;2.72;2.22;;;;;;;;;;5071900;28;20071;-78
2023/07/22 13:09:43;;;;;;;2.63;1.80;;;;;;;;;;5070647;28;20029;-78
2023/07/22 13:12:09;;;;;;;2.85;1.70;;;;;;;;;;5067417;28;20029;-78
2023/07/22 13:14:35;;;;;;;3.60;1.98;;;;;;;;;;5070333;28;20024;-78
2023/07/22 13:17:00;;;;;;;3.63;1.88;;;;;;;;;;5071102;28;20029;-78
2023/07/22 13:19:25;;;;;;;3.50;2.20;;;;;;;;;;5070986;28;20036;-78
2023/07/22 13:21:51;;;;;;;3.13;2.45;;;;;;;;;;5069933;28;20059;-79
2023/07/22 13:24:16;;;;;;;3.05;1.80;;;;;;;;;;5069639;28;20055;-78
2023/07/22 13:26:41;;;;;;;3.83;2.05;;;;;;;;;;5069725;28;20508;-78
2023/07/22 13:29:08;;;;;;;3.55;2.00;;;;;;;;;;5071085;28;20036;-79
2023/07/22 13:31:34;;;;;;;4.03;2.55;;;;;;;;;;5071086;28;20391;-78
2023/07/22 13:33:59;;;;;;;5.63;2.70;;;;;;;;;;5071202;28;20078;-78
2023/07/22 13:36:25;;;;;;;3.05;2.28;;;;;;;;;;5054523;28;20035;-78
2023/07/22 13:38:50;;;;;;;5.18;2.15;;;;;;;;;;5053892;28;20024;-78
2023/07/22 13:41:15;;;;;;;2.30;2.00;;;;;;;;;;5069606;28;20064;-78
2023/07/22 13:43:41;;;;;;;3.55;1.90;;;;;;;;;;5053021;28;20086;-78
2023/07/22 13:46:06;;;;;;;3.05;1.85;;;;;;;;;;5071376;28;20025;-78
2023/07/22 13:48:31;;;;;;;2.50;1.70;;;;;;;;;;5072421;28;20025;-78
2023/07/22 13:50:57;;;;;;;2.70;1.58;;;;;;;;;;5071759;28;20067;-79
2023/07/22 13:53:22;;;;;;;2.22;1.80;;;;;;;;;;5073018;28;20036;-78
2023/07/22 13:55:48;;;;;;;2.92;1.88;;;;;;;;;;5072917;28;20077;-78
2023/07/22 13:58:13;;;;;;;3.60;2.00;;;;;;;;;;5071511;28;20353;-78
2023/07/22 14:00:39;;;;;;;4.57;1.63;;;;;;;;;;5072527;28;20033;-79
2023/07/22 14:03:04;;;;;;;3.83;1.80;;;;;;;;;;5073030;28;20135;-79
2023/07/22 14:05:31;;;;;;;2.90;1.90;;;;;;;;;;5070892;28;20087;-79
2023/07/22 14:07:56;;;;;;;2.55;1.63;;;;;;;;;;5071302;28;20024;-79
2023/07/22 14:10:21;;;;;;;2.40;1.70;;;;;;;;;;5072467;28;20016;-79
2023/07/22 14:12:47;;;;;;;3.67;1.70;;;;;;;;;;5072010;28;20388;-79
2023/07/22 14:15:12;;;;;;;2.60;1.50;;;;;;;;;;5071994;28;20035;-79
2023/07/22 14:17:40;;;;;;;2.03;1.73;;;;;;;;;;5053980;28;20024;-79
2023/07/22 14:20:06;;;;;;;1.73;1.52;;;;;;;;;;5072266;28;20040;-79
2023/07/22 14:22:32;;;;;;;1.67;1.55;;;;;;;;;;5071081;28;20085;-79
2023/07/22 14:24:58;;;;;;;3.92;1.73;;;;;;;;;;5074358;28;20032;-79
2023/07/22 14:27:23;;;;;;;1.70;1.60;;;;;;;;;;5057223;28;20033;-79
2023/07/22 14:29:48;;;;;;;4.15;2.03;;;;;;;;;;5075363;28;20111;-80
2023/07/22 14:32:16;;;;;;;4.78;1.77;;;;;;;;;;5074409;28;20029;-80
2023/07/22 14:34:41;;;;;;;2.13;1.60;;;;;;;;;;5075218;28;20149;-80
2023/07/22 14:37:07;;;;;;;1.30;1.20;;;;;;;;;;5075072;28;20050;-80
2023/07/22 14:39:32;;;;;;;3.75;2.10;;;;;;;;;;5073889;28;20029;-80